Dousman, WI

5:05 PM CDT on April 21, 2015 (GMT -0500)
Watertown Municipal | | Change Station
CLOSE
Current Station
Airport
Location: Watertown,
Elevation: 833 ft
Nearby Weather Stations

Elev 833 ft 43.17 °N, 88.72 °W | Updated 10 minutes ago

Overcast
Overcast
42 °F
Feels Like 34 °F
N
14
Wind Variable Wind from West
Gusts 24 mph

Today
High -- | Low -- °F
--% Chance of Precip.
Yesterday
High -- | Low -- °F
Precip. -- in
6:02 AM 7:43 PM
Waxing Crescent, 13% visible
Pressure 29.59 in
Visibility 10.0 miles
Clouds Mostly Cloudy 3700 ft
Overcast 7000 ft
Windchill 34 °F
Dew Point 28 °F
Humidity 59%
Rainfall 0.00 in
Snow Depth Not available.
UV 1 out of 12
Pollen 10.10 out of 12
Air Quality Not available.
Flu Activity Local Activity
METAR KRYV 212155Z AUTO 27012G21KT 10SM BKN037 OVC070 05/M02 A2959 RMK AO2 T00541020

More Conditions Fewer Conditions

Pressure 29.59 in
Visibility 10.0 miles
Clouds Mostly Cloudy 3700 ft
Overcast 7000 ft
Windchill 34 °F
Dew Point 28 °F
Humidity 59%
Rainfall 0.00 in
Snow Depth Not available.
UV 1 out of 12
Pollen 10.10 out of 12
Air Quality Not available.
Flu Activity Local Activity
METAR KRYV 212155Z AUTO 27012G21KT 10SM BKN037 OVC070 05/M02 A2959 RMK AO2 T00541020

More Conditions Fewer Conditions

10-Day Weather Forecast

Almanac

Astronomy

Apr. 21, 2015 Rise Set
Actual Time
Civil Twilight
Nautical Twilight
Astronomical Twilight
Moon
Length of Visible Light
Length of Day
Tomorrow will be .
, % of the Moon is Illuminated

Today's Extremes

State Highs State Lows

Community

WunderPhotos

Upload Photos

1,815,552 photos uploaded!

WunderBlogs® & News

Nearby

Air Quality

  Air Quality AQ Index Pollutant
Not available.

Snow Depth

Station Depth Elevation

Earthquake Activity

City Distance Mag. Time & Date
Minimum magnitude displayed is 2.5.

Coastal Water Temperatures

Place Temperature

Stations

Nearby Weather Stations

Station Location Temp. Windchill Dew Point Humidity Wind Precip. Elev Updated Type